createdAt,value
2022-09-12T00:01:10.789Z,21.23
2022-09-12T00:03:38.810Z,24.07
2022-09-12T00:06:25.881Z,26.63
2022-09-12T00:08:58.023Z,21.93
2022-09-12T00:11:26.605Z,26.93
2022-09-12T00:13:58.145Z,31.57
2022-09-12T00:16:26.795Z,32.50
2022-09-12T00:18:54.681Z,33.03
2022-09-12T00:21:22.530Z,36.03
2022-09-12T00:23:50.874Z,29.13
2022-09-12T00:26:19.069Z,30.67
2022-09-12T00:28:46.980Z,30.53
2022-09-12T00:31:21.750Z,27.97
2022-09-12T00:33:49.445Z,32.10
2022-09-12T00:36:18.617Z,29.00
2022-09-12T00:38:46.488Z,30.70
2022-09-12T00:41:16.674Z,28.40
2022-09-12T00:43:45.521Z,31.37
2022-09-12T00:46:28.268Z,29.37
2022-09-12T00:49:08.165Z,27.87
2022-09-12T00:51:38.061Z,31.77
2022-09-12T00:54:11.533Z,28.63
2022-09-12T00:56:41.677Z,34.60
2022-09-12T00:59:14.300Z,34.57
2022-09-12T01:01:42.352Z,40.37
2022-09-12T01:04:11.520Z,40.30
2022-09-12T01:06:43.415Z,32.67
2022-09-12T01:09:16.495Z,38.17
2022-09-12T01:11:44.933Z,35.07
2022-09-12T01:14:12.717Z,38.03
2022-09-12T01:16:40.771Z,26.63
2022-09-12T01:19:27.045Z,26.27
2022-09-12T01:21:57.621Z,25.10
2022-09-12T01:25:03.705Z,30.30
2022-09-12T01:27:49.813Z,29.47
2022-09-12T01:30:17.247Z,29.93
2022-09-12T01:32:54.035Z,29.47
2022-09-12T01:35:21.547Z,32.43
2022-09-12T01:37:49.146Z,24.87
2022-09-12T01:40:22.754Z,28.33
2022-09-12T01:42:54.702Z,34.10
2022-09-12T01:45:27.127Z,30.37
2022-09-12T01:48:00.093Z,33.30
2022-09-12T01:50:36.149Z,31.03
2022-09-12T01:53:23.802Z,32.40
2022-09-12T01:56:20.416Z,33.67
2022-09-12T01:58:53.667Z,39.30
2022-09-12T02:01:27.169Z,37.57
2022-09-12T02:04:01.196Z,40.87
2022-09-12T02:06:32.161Z,40.80
2022-09-12T02:09:09.130Z,43.10
2022-09-12T02:11:39.273Z,31.53
2022-09-12T02:14:22.549Z,29.23
2022-09-12T02:16:53.610Z,38.83
2022-09-12T02:19:23.089Z,34.77
2022-09-12T02:21:52.705Z,39.50
2022-09-12T02:24:21.134Z,37.37
2022-09-12T02:26:50.786Z,40.60
2022-09-12T02:29:18.439Z,42.30
2022-09-12T02:31:47.081Z,38.73
2022-09-12T02:34:33.400Z,42.20
2022-09-12T02:37:12.489Z,44.67
2022-09-12T02:39:45.117Z,39.57
2022-09-12T02:42:13.260Z,38.00
2022-09-12T02:44:40.907Z,37.93
2022-09-12T02:47:13.661Z,40.67
2022-09-12T02:49:41.130Z,37.10
2022-09-12T02:52:08.593Z,35.73
2022-09-12T02:54:36.734Z,46.67
2022-09-12T02:57:04.512Z,40.43
2022-09-12T02:59:32.130Z,38.30
2022-09-12T03:02:05.356Z,37.00
2022-09-12T03:04:51.940Z,40.23
2022-09-12T03:07:38.232Z,39.87
2022-09-12T03:10:05.853Z,43.20
2022-09-12T03:12:40.484Z,43.53
2022-09-12T03:15:29.690Z,45.60
2022-09-12T03:18:05.409Z,43.90
2022-09-12T03:20:41.862Z,42.87
2022-09-12T03:23:15.612Z,42.67
2022-09-12T03:25:45.286Z,47.23
2022-09-12T03:28:14.883Z,38.00
2022-09-12T03:30:44.457Z,38.50
2022-09-12T03:33:12.701Z,41.07
2022-09-12T03:35:40.196Z,47.20
2022-09-12T03:38:07.838Z,43.47
2022-09-12T03:40:35.885Z,40.03
2022-09-12T03:43:03.761Z,51.33
2022-09-12T03:45:31.245Z,43.70
2022-09-12T03:47:59.124Z,47.73
2022-09-12T03:50:26.605Z,46.87
2022-09-12T03:52:54.353Z,44.40
2022-09-12T03:55:21.953Z,46.77
2022-09-12T03:57:52.908Z,43.30
2022-09-12T04:00:20.382Z,44.13
2022-09-12T04:02:47.817Z,48.50
2022-09-12T04:05:15.498Z,48.90
2022-09-12T04:07:42.966Z,46.47
2022-09-12T04:10:10.500Z,46.37
2022-09-12T04:12:37.924Z,45.63
2022-09-12T04:15:05.702Z,45.20
2022-09-12T04:17:33.300Z,49.10
2022-09-12T04:20:00.781Z,45.80
2022-09-12T04:22:28.437Z,47.40
2022-09-12T04:24:56.042Z,50.77
2022-09-12T04:27:23.557Z,49.27
2022-09-12T04:29:51.306Z,46.87
2022-09-12T04:32:18.787Z,52.23
2022-09-12T04:34:46.433Z,44.77
2022-09-12T04:37:14.138Z,46.53
2022-09-12T04:39:41.592Z,49.33
2022-09-12T04:42:09.287Z,43.23
2022-09-12T04:44:36.703Z,51.27
2022-09-12T04:47:04.187Z,45.77
2022-09-12T04:49:31.638Z,43.77
2022-09-12T04:52:00.258Z,44.40
2022-09-12T04:54:27.852Z,44.27
2022-09-12T04:56:55.358Z,39.47
2022-09-12T04:59:23.051Z,43.03
2022-09-12T05:01:50.783Z,43.93
2022-09-12T05:04:18.594Z,51.47
2022-09-12T05:06:46.093Z,40.57
2022-09-12T05:09:14.168Z,43.97
2022-09-12T05:12:03.165Z,41.73
2022-09-12T05:14:29.891Z,40.80
2022-09-12T05:16:57.328Z,34.73
2022-09-12T05:19:25.178Z,34.47
2022-09-12T05:21:52.579Z,37.30
2022-09-12T05:24:20.093Z,39.83
2022-09-12T05:26:47.527Z,33.47
2022-09-12T05:29:14.956Z,32.63
2022-09-12T05:31:42.500Z,31.97
2022-09-12T05:34:10.441Z,33.57
2022-09-12T05:36:38.105Z,25.87
2022-09-12T05:39:05.583Z,28.30
2022-09-12T05:41:33.419Z,19.97
2022-09-12T05:44:02.153Z,24.93
2022-09-12T05:46:36.673Z,19.53
2022-09-12T05:49:08.728Z,25.53
2022-09-12T05:51:37.707Z,27.30
2022-09-12T05:54:06.011Z,31.40
2022-09-12T05:56:34.499Z,38.50
2022-09-12T05:59:03.123Z,37.13
2022-09-12T06:01:32.144Z,39.77
2022-09-12T06:04:01.555Z,43.00
2022-09-12T06:06:29.883Z,40.93
2022-09-12T06:09:01.462Z,35.33
2022-09-12T06:11:30.278Z,27.13
2022-09-12T06:13:58.645Z,25.10
2022-09-12T06:16:30.308Z,22.77
2022-09-12T06:19:02.212Z,23.07
2022-09-12T06:21:30.322Z,23.67
2022-09-12T06:23:57.991Z,24.80
2022-09-12T06:26:25.801Z,25.50
2022-09-12T06:28:54.740Z,25.60
2022-09-12T06:31:26.511Z,19.17
2022-09-12T06:33:54.961Z,21.03
2022-09-12T06:36:23.864Z,20.60
2022-09-12T06:38:55.329Z,22.90
2022-09-12T06:41:23.050Z,20.77
2022-09-12T06:43:50.590Z,18.47
2022-09-12T06:46:21.133Z,18.87
2022-09-12T06:48:49.065Z,16.97
2022-09-12T06:51:18.047Z,16.90
2022-09-12T06:53:45.890Z,19.60
2022-09-12T06:56:17.898Z,20.73
2022-09-12T06:58:46.108Z,18.67
2022-09-12T07:01:15.155Z,16.07
2022-09-12T07:03:43.894Z,17.33
2022-09-12T07:06:15.357Z,15.13
2022-09-12T07:08:43.110Z,17.47
2022-09-12T07:11:11.779Z,15.70
2022-09-12T07:13:39.663Z,14.70
2022-09-12T07:16:07.152Z,15.77
2022-09-12T07:18:35.533Z,13.77
2022-09-12T07:21:03.788Z,14.97
2022-09-12T07:23:31.732Z,18.20
2022-09-12T07:25:59.842Z,18.03
2022-09-12T07:28:28.332Z,16.60
2022-09-12T07:30:55.845Z,15.53
2022-09-12T07:33:29.637Z,16.40
2022-09-12T07:36:01.434Z,13.87
2022-09-12T07:38:28.925Z,15.63
2022-09-12T07:40:56.350Z,19.10
2022-09-12T07:43:24.175Z,13.37
2022-09-12T07:45:58.267Z,15.37
2022-09-12T07:48:27.028Z,16.20
2022-09-12T07:51:02.633Z,15.03
2022-09-12T07:53:35.337Z,17.23
2022-09-12T07:56:03.533Z,12.70
2022-09-12T07:58:31.532Z,14.33
2022-09-12T08:01:05.599Z,13.87
2022-09-12T08:03:33.138Z,12.47
2022-09-12T08:06:19.819Z,13.70
2022-09-12T08:08:48.054Z,18.77
2022-09-12T08:11:16.506Z,14.50
2022-09-12T08:13:44.903Z,14.23
2022-09-12T08:16:13.529Z,12.97
2022-09-12T08:18:41.401Z,14.43
2022-09-12T08:21:12.593Z,16.90
2022-09-12T08:23:40.236Z,13.40
2022-09-12T08:26:07.976Z,14.83
2022-09-12T08:28:36.071Z,17.13
2022-09-12T08:31:04.375Z,13.90
2022-09-12T08:33:32.302Z,12.30
2022-09-12T08:36:06.633Z,14.93
2022-09-12T08:38:35.015Z,15.43
2022-09-12T08:41:10.432Z,12.67
2022-09-12T08:43:40.647Z,16.70
2022-09-12T08:46:12.459Z,13.40
2022-09-12T08:48:40.821Z,11.63
2022-09-12T08:51:13.069Z,12.40
2022-09-12T08:53:40.661Z,12.73
2022-09-12T08:56:09.546Z,10.33
2022-09-12T08:58:40.098Z,12.57
2022-09-12T09:01:26.073Z,14.97
2022-09-12T09:03:53.714Z,11.60
2022-09-12T09:06:31.464Z,14.97
2022-09-12T09:09:08.804Z,13.73
2022-09-12T09:11:48.584Z,12.20
2022-09-12T09:14:34.854Z,11.93
2022-09-12T09:17:02.812Z,12.40
2022-09-12T09:19:37.734Z,9.70
2022-09-12T09:22:07.720Z,10.70
2022-09-12T09:24:43.970Z,11.83
2022-09-12T09:27:36.790Z,9.77
2022-09-12T09:30:04.140Z,11.37
2022-09-12T09:32:37.916Z,9.50
2022-09-12T09:35:19.456Z,12.30
2022-09-12T09:38:05.669Z,13.13
2022-09-12T09:40:50.502Z,11.77
2022-09-12T09:43:21.931Z,10.40
2022-09-12T09:45:50.107Z,9.70
2022-09-12T09:48:23.138Z,8.93
2022-09-12T09:50:50.835Z,8.53
2022-09-12T09:53:21.123Z,7.90
2022-09-12T09:55:49.768Z,11.67
2022-09-12T09:58:36.498Z,7.90
2022-09-12T10:01:05.892Z,8.83
2022-09-12T10:03:40.486Z,8.50
2022-09-12T10:06:23.769Z,7.23
2022-09-12T10:08:51.508Z,7.87
2022-09-12T10:11:23.336Z,7.97
2022-09-12T10:16:50.521Z,7.90
2022-09-12T10:19:22.374Z,5.70
2022-09-12T10:21:52.176Z,5.60
2022-09-12T10:24:31.253Z,7.00
2022-09-12T10:27:06.684Z,8.40
2022-09-12T10:29:35.507Z,4.70
2022-09-12T10:32:04.973Z,7.90
2022-09-12T10:34:45.652Z,6.13
2022-09-12T10:37:18.984Z,6.57
2022-09-12T10:39:51.971Z,7.70
2022-09-12T10:42:39.569Z,5.30
2022-09-12T10:45:18.224Z,5.57
2022-09-12T10:47:46.444Z,5.87
2022-09-12T10:50:23.086Z,8.43
2022-09-12T10:52:50.959Z,3.73
2022-09-12T10:55:18.410Z,5.23
2022-09-12T10:58:07.135Z,3.07
2022-09-12T11:00:36.360Z,3.90
2022-09-12T11:03:07.290Z,2.73
2022-09-12T11:05:47.338Z,5.57
2022-09-12T11:08:30.410Z,5.17
2022-09-12T11:10:57.914Z,5.67
2022-09-12T11:13:40.486Z,4.53
2022-09-12T11:16:26.426Z,5.40
2022-09-12T11:19:06.559Z,3.93
2022-09-12T11:21:39.853Z,5.07
2022-09-12T11:24:26.268Z,2.57
2022-09-12T11:26:56.799Z,7.67
2022-09-12T11:29:38.187Z,2.53
2022-09-12T11:32:11.623Z,3.70
2022-09-12T11:34:58.203Z,3.00
2022-09-12T11:37:34.267Z,2.53
2022-09-12T11:40:06.274Z,3.97
2022-09-12T11:42:36.023Z,4.80
2022-09-12T11:45:08.720Z,2.57
2022-09-12T11:47:37.237Z,3.37
2022-09-12T11:50:06.042Z,2.53
2022-09-12T11:52:37.771Z,2.97
2022-09-12T11:55:23.561Z,2.40
2022-09-12T11:57:53.753Z,3.23
2022-09-12T12:00:21.505Z,3.20
2022-09-12T12:02:56.496Z,2.30
2022-09-12T12:05:50.301Z,3.90
2022-09-12T12:08:17.774Z,3.17
2022-09-12T12:10:50.153Z,3.87
2022-09-12T12:13:20.004Z,2.60
2022-09-12T12:15:53.195Z,2.57
2022-09-12T12:18:23.626Z,2.00
2022-09-12T12:20:52.061Z,2.30
2022-09-12T12:23:35.398Z,5.47
2022-09-12T12:26:03.830Z,3.47
2022-09-12T12:28:58.015Z,2.30
2022-09-12T12:31:25.647Z,4.27
2022-09-12T12:33:54.547Z,2.50
2022-09-12T12:36:33.579Z,4.10
2022-09-12T12:39:21.044Z,2.23
2022-09-12T12:41:48.489Z,2.53
2022-09-12T12:44:34.679Z,3.47
2022-09-12T12:47:28.340Z,3.37
2022-09-12T12:50:01.911Z,4.73
2022-09-12T12:52:31.489Z,2.40
2022-09-12T12:55:03.148Z,2.40
2022-09-12T12:57:49.575Z,4.03
2022-09-12T13:00:26.288Z,4.13
2022-09-12T13:03:03.768Z,3.40
2022-09-12T13:05:38.950Z,5.33
2022-09-12T13:08:12.071Z,4.67
2022-09-12T13:10:39.700Z,2.20
2022-09-12T13:13:08.339Z,4.93
2022-09-12T13:15:38.845Z,3.33
2022-09-12T13:18:08.101Z,4.00
2022-09-12T13:20:38.829Z,3.10
2022-09-12T13:23:06.584Z,3.13
2022-09-12T13:25:37.890Z,4.23
2022-09-12T13:28:05.410Z,4.00
2022-09-12T13:30:37.595Z,3.83
2022-09-12T13:33:29.679Z,2.70
2022-09-12T13:36:16.065Z,2.80
2022-09-12T13:38:46.631Z,3.50
2022-09-12T13:41:22.175Z,5.60
2022-09-12T13:43:50.340Z,3.70
2022-09-12T13:46:29.183Z,3.67
2022-09-12T13:48:57.552Z,3.40
2022-09-12T13:51:26.860Z,5.60
2022-09-12T13:53:55.912Z,2.90
2022-09-12T13:56:23.409Z,3.93
2022-09-12T13:58:55.626Z,4.27
2022-09-12T14:01:24.020Z,3.83
2022-09-12T14:03:56.814Z,3.47
2022-09-12T14:06:26.376Z,4.07
2022-09-12T14:08:54.737Z,4.27
2022-09-12T14:11:25.163Z,3.93
2022-09-12T14:13:53.203Z,2.40
2022-09-12T14:16:21.036Z,3.57
2022-09-12T14:18:49.263Z,6.03
2022-09-12T14:21:27.057Z,4.53
2022-09-12T14:23:54.751Z,3.63
2022-09-12T14:26:22.378Z,3.20
2022-09-12T14:28:50.394Z,2.80
2022-09-12T14:31:17.840Z,5.93
2022-09-12T14:33:48.456Z,3.60
2022-09-12T14:36:26.186Z,2.47
2022-09-12T14:39:00.247Z,2.30
2022-09-12T14:41:32.664Z,2.50
2022-09-12T14:44:01.300Z,4.20
2022-09-12T14:46:40.022Z,2.30
2022-09-12T14:49:17.004Z,3.07
2022-09-12T14:51:51.169Z,4.67
2022-09-12T14:54:30.597Z,2.33
2022-09-12T14:57:02.393Z,2.50
2022-09-12T14:59:30.141Z,2.93
2022-09-12T15:02:16.286Z,4.60
2022-09-12T15:04:45.058Z,8.83
2022-09-12T15:07:31.385Z,5.90
2022-09-12T15:09:59.942Z,3.77
2022-09-12T15:12:27.508Z,3.33
2022-09-12T15:15:00.279Z,2.40
2022-09-12T15:17:27.750Z,1.97
2022-09-12T15:19:55.222Z,2.50
2022-09-12T15:22:24.406Z,2.47
2022-09-12T15:24:51.825Z,2.63
2022-09-12T15:27:19.490Z,2.27
2022-09-12T15:29:46.983Z,2.33
2022-09-12T15:32:22.951Z,2.03
2022-09-12T15:34:50.411Z,2.57
2022-09-12T15:37:18.403Z,4.60
2022-09-12T15:39:45.918Z,3.73
2022-09-12T15:42:14.157Z,2.40
2022-09-12T15:44:42.084Z,4.50
2022-09-12T15:47:12.460Z,3.00
2022-09-12T15:49:40.668Z,4.33
2022-09-12T15:52:16.209Z,3.43
2022-09-12T15:54:44.245Z,5.73
2022-09-12T15:57:11.700Z,6.67
2022-09-12T15:59:39.256Z,3.57
2022-09-12T16:02:06.869Z,2.30
2022-09-12T16:04:35.086Z,2.57
2022-09-12T16:07:02.752Z,6.73
2022-09-12T16:09:30.386Z,4.23
2022-09-12T16:11:57.829Z,5.17
2022-09-12T16:14:25.409Z,3.90
2022-09-12T16:17:19.430Z,4.83
2022-09-12T16:19:46.938Z,3.73
2022-09-12T16:22:14.471Z,2.70
2022-09-12T16:24:42.334Z,5.10
2022-09-12T16:27:09.788Z,2.30
2022-09-12T16:29:37.285Z,2.87
2022-09-12T16:32:05.141Z,12.23
2022-09-12T16:34:32.580Z,5.43
2022-09-12T16:37:00.081Z,2.40
2022-09-12T16:39:27.616Z,3.17
2022-09-12T16:41:55.077Z,2.40
2022-09-12T16:44:22.704Z,2.80
2022-09-12T16:46:50.238Z,3.57
2022-09-12T16:49:18.096Z,2.97
2022-09-12T16:51:45.606Z,4.50
2022-09-12T16:54:13.443Z,2.30
2022-09-12T16:56:41.272Z,4.43
2022-09-12T16:59:09.259Z,4.53
2022-09-12T17:01:36.937Z,2.33
2022-09-12T17:04:04.679Z,4.97
2022-09-12T17:06:33.335Z,2.50
2022-09-12T17:09:01.565Z,3.37
2022-09-12T17:11:30.946Z,3.97
2022-09-12T17:14:07.140Z,2.13
2022-09-12T17:16:42.728Z,3.70
2022-09-12T17:19:14.126Z,2.53
2022-09-12T17:21:41.761Z,5.40
2022-09-12T17:24:09.199Z,6.57
2022-09-12T17:26:36.844Z,7.17
2022-09-12T17:29:04.744Z,4.50
2022-09-12T17:31:32.289Z,10.77
2022-09-12T17:34:00.293Z,3.60
2022-09-12T17:36:28.320Z,4.33
2022-09-12T17:38:56.314Z,2.40
2022-09-12T17:41:29.701Z,2.43
2022-09-12T17:43:57.664Z,4.73
2022-09-12T17:46:26.899Z,3.63
2022-09-12T17:48:55.579Z,8.07
2022-09-12T17:51:23.733Z,4.27
2022-09-12T17:54:20.576Z,4.37
2022-09-12T17:56:48.822Z,4.23
2022-09-12T17:59:17.939Z,3.97
2022-09-12T18:01:45.813Z,6.03
2022-09-12T18:04:13.465Z,6.53
2022-09-12T18:06:41.014Z,7.33
2022-09-12T18:09:09.812Z,10.30
2022-09-12T18:11:37.465Z,5.20
2022-09-12T18:14:04.957Z,4.90
2022-09-12T18:16:32.687Z,3.00
2022-09-12T18:19:00.196Z,4.27
2022-09-12T18:21:28.411Z,3.97
2022-09-12T18:23:56.527Z,3.93
2022-09-12T18:26:23.989Z,4.17
2022-09-12T18:28:51.489Z,6.47
2022-09-12T18:31:20.600Z,4.53
2022-09-12T18:33:48.685Z,4.50
2022-09-12T18:36:16.723Z,6.80
2022-09-12T18:38:45.213Z,3.77
2022-09-12T18:41:14.154Z,3.87
2022-09-12T18:43:41.685Z,5.63
2022-09-12T18:46:11.175Z,4.40
2022-09-12T18:48:38.698Z,3.57
2022-09-12T18:51:26.447Z,3.27
2022-09-12T18:53:55.256Z,3.20
2022-09-12T18:56:29.747Z,4.27
2022-09-12T18:58:57.489Z,3.80
2022-09-12T19:01:26.430Z,3.57
2022-09-12T19:03:54.542Z,4.23
2022-09-12T19:06:23.545Z,3.17
2022-09-12T19:08:51.845Z,4.17
2022-09-12T19:11:20.177Z,3.30
2022-09-12T19:13:48.562Z,4.70
2022-09-12T19:16:17.916Z,4.77
2022-09-12T19:18:45.613Z,6.23
2022-09-12T19:21:14.961Z,3.60
2022-09-12T19:23:42.758Z,3.03
2022-09-12T19:26:10.967Z,5.60
2022-09-12T19:28:38.538Z,3.50
2022-09-12T19:31:06.949Z,3.83
2022-09-12T19:33:34.900Z,3.57
2022-09-12T19:36:03.237Z,3.33
2022-09-12T19:38:31.469Z,4.00
2022-09-12T19:41:00.225Z,5.13
2022-09-12T19:43:27.751Z,8.83
2022-09-12T19:45:55.633Z,5.40
2022-09-12T19:48:23.327Z,5.30
2022-09-12T19:50:50.886Z,3.67
2022-09-12T19:53:18.934Z,4.40
2022-09-12T19:55:46.923Z,3.07
2022-09-12T19:58:14.475Z,5.93
2022-09-12T20:00:42.085Z,3.97
2022-09-12T20:03:09.624Z,3.17
2022-09-12T20:05:42.055Z,4.73
2022-09-12T20:08:10.196Z,4.20
2022-09-12T20:10:37.625Z,4.73
2022-09-12T20:13:05.068Z,3.87
2022-09-12T20:15:32.536Z,6.17
2022-09-12T20:18:00.121Z,3.83
2022-09-12T20:20:27.574Z,5.67
2022-09-12T20:22:55.229Z,3.57
2022-09-12T20:25:22.672Z,11.90
2022-09-12T20:27:50.084Z,6.77
2022-09-12T20:30:17.591Z,3.77
2022-09-12T20:32:45.089Z,6.80
2022-09-12T20:35:12.641Z,4.27
2022-09-12T20:37:40.322Z,5.57
2022-09-12T20:40:08.415Z,4.17
2022-09-12T20:42:35.973Z,5.17
2022-09-12T20:45:04.107Z,3.80
2022-09-12T20:47:31.596Z,5.60
2022-09-12T20:50:02.158Z,5.33
2022-09-12T20:52:29.737Z,5.27
2022-09-12T20:54:57.218Z,6.20
2022-09-12T20:57:24.687Z,4.90
2022-09-12T20:59:52.146Z,5.10
2022-09-12T21:02:19.713Z,5.17
2022-09-12T21:04:47.260Z,12.00
2022-09-12T21:07:14.870Z,4.60
2022-09-12T21:09:42.364Z,5.23
2022-09-12T21:12:10.073Z,6.63
2022-09-12T21:14:37.599Z,5.60
2022-09-12T21:17:05.182Z,4.87
2022-09-12T21:19:32.637Z,5.83
2022-09-12T21:22:00.097Z,6.23
2022-09-12T21:24:27.642Z,5.10
2022-09-12T21:26:55.183Z,4.93
2022-09-12T21:29:22.602Z,7.20
2022-09-12T21:31:50.031Z,4.67
2022-09-12T21:34:18.361Z,5.17
2022-09-12T21:36:45.864Z,3.90
2022-09-12T21:39:13.321Z,3.57
2022-09-12T21:41:40.791Z,4.60
2022-09-12T21:44:08.332Z,4.83
2022-09-12T21:46:35.926Z,3.30
2022-09-12T21:49:03.362Z,8.63
2022-09-12T21:51:31.032Z,3.13
2022-09-12T21:53:58.536Z,4.93
2022-09-12T21:56:26.337Z,3.90
2022-09-12T21:58:53.767Z,7.77
2022-09-12T22:01:21.464Z,11.73
2022-09-12T22:03:49.032Z,3.93
2022-09-12T22:06:20.590Z,6.77
2022-09-12T22:08:49.921Z,4.27
2022-09-12T22:11:17.427Z,6.13
2022-09-12T22:13:44.937Z,5.90
2022-09-12T22:16:12.646Z,4.17
2022-09-12T22:18:40.154Z,4.37
2022-09-12T22:21:15.561Z,6.43
2022-09-12T22:23:43.075Z,4.60
2022-09-12T22:26:10.623Z,4.53
2022-09-12T22:28:38.288Z,5.67
2022-09-12T22:31:05.866Z,3.93
2022-09-12T22:33:33.447Z,9.07
2022-09-12T22:36:00.894Z,4.20
2022-09-12T22:38:28.510Z,6.17
2022-09-12T22:40:56.216Z,6.63
2022-09-12T22:43:23.736Z,4.13
2022-09-12T22:45:51.201Z,4.77
2022-09-12T22:48:18.688Z,6.63
2022-09-12T22:50:46.307Z,5.63
2022-09-12T22:53:13.790Z,12.67
2022-09-12T22:55:43.141Z,4.73
2022-09-12T22:58:11.010Z,4.33
2022-09-12T23:00:38.663Z,4.60
2022-09-12T23:03:06.242Z,5.27
2022-09-12T23:05:33.897Z,5.03
2022-09-12T23:08:01.535Z,4.30
2022-09-12T23:10:29.046Z,4.30
2022-09-12T23:12:56.549Z,5.97
2022-09-12T23:15:23.970Z,4.97
2022-09-12T23:17:51.529Z,5.07
2022-09-12T23:20:19.010Z,4.73
2022-09-12T23:22:46.495Z,3.93
2022-09-12T23:25:13.921Z,4.17
2022-09-12T23:27:41.418Z,4.80
2022-09-12T23:30:14.861Z,3.37
2022-09-12T23:32:42.301Z,5.67
2022-09-12T23:35:11.864Z,4.10
2022-09-12T23:37:39.373Z,7.50
2022-09-12T23:40:07.121Z,4.83
2022-09-12T23:42:34.801Z,4.43
2022-09-12T23:45:02.273Z,4.00
2022-09-12T23:47:29.693Z,8.17
2022-09-12T23:49:57.145Z,3.80
2022-09-12T23:52:24.831Z,6.10
2022-09-12T23:54:52.337Z,4.17
2022-09-12T23:57:19.774Z,4.03
2022-09-12T23:59:47.361Z,3.03
